Time;durP1;ratioP1;P1;durP2;ratioP2;P2;SDS_P1;SDS_P2;PMS_P1;PMS_P2;Temp;Humidity;BMP_temperature;BMP_pressure;BME280_temperature;BME280_humidity;BME280_pressure;Samples;Min_cycle;Max_cycle;Signal;HPM_P1;HPM_P2
2021/03/11 00:03:22;;;;;;;2.57;2.00;;;;;;;5.71;74.27;98655.25;3814151;76;396040;-75
2021/03/11 00:08:44;;;;;;;13.93;3.60;;;;;;;5.74;74.07;98649.02;3813575;76;396339;-75
2021/03/11 00:14:05;;;;;;;2.10;1.53;;;;;;;5.66;74.53;98647.39;3813559;75;396183;-75
2021/03/11 00:19:26;;;;;;;1.70;1.60;;;;;;;5.68;74.36;98635.52;3813290;75;394391;-75
2021/03/11 00:24:48;;;;;;;3.60;3.13;;;;;;;5.67;74.19;98635.31;3814224;75;396121;-74
2021/03/11 00:30:10;;;;;;;6.63;3.90;;;;;;;5.78;74.26;98636.23;3813089;75;396320;-75
2021/03/11 00:35:31;;;;;;;4.70;2.47;;;;;;;5.78;74.26;98636.23;3814351;75;396292;-74
2021/03/11 00:40:52;;;;;;;8.90;2.57;;;;;;;5.74;74.57;98627.19;3814810;76;394007;-74
2021/03/11 00:46:13;;;;;;;8.20;2.57;;;;;;;5.74;75.21;98627.19;3814800;76;400234;-74
2021/03/11 00:51:34;;;;;;;5.30;3.30;;;;;;;5.74;74.75;98617.62;3837615;75;396378;-75
2021/03/11 00:56:56;;;;;;;5.20;2.50;;;;;;;5.82;74.07;98607.59;3814658;75;396493;-75
2021/03/11 01:02:17;;;;;;;4.30;2.80;;;;;;;5.84;74.22;98608.77;3813735;76;396130;-74
2021/03/11 01:07:38;;;;;;;5.73;3.70;;;;;;;5.83;73.96;98583.23;3812199;76;396363;-74
2021/03/11 01:12:59;;;;;;;4.20;3.10;;;;;;;5.76;74.93;98581.23;3817665;76;396126;-74
2021/03/11 01:18:21;;;;;;;2.47;2.27;;;;;;;5.90;74.53;98574.50;3817752;76;396079;-74
2021/03/11 01:23:42;;;;;;;3.13;2.30;;;;;;;5.94;74.25;98575.31;3817672;76;396056;-74
2021/03/11 01:29:04;;;;;;;4.83;3.60;;;;;;;5.96;74.90;98563.44;3816462;76;396083;-74
2021/03/11 01:34:25;;;;;;;14.97;2.80;;;;;;;5.91;75.95;98554.22;3816577;76;396479;-74
2021/03/11 01:39:46;;;;;;;3.60;2.53;;;;;;;5.82;77.69;98557.10;3817874;76;396126;-74
2021/03/11 01:45:09;;;;;;;4.50;2.73;;;;;;;5.69;79.27;98551.14;3817231;75;396122;-74
2021/03/11 01:50:30;;;;;;;3.37;3.13;;;;;;;5.60;80.36;98529.45;3812225;76;396147;-74
2021/03/11 01:55:51;;;;;;;4.90;2.40;;;;;;;5.67;80.11;98502.98;3812576;76;396119;-74
2021/03/11 02:01:13;;;;;;;5.60;1.73;;;;;;;5.70;78.46;98480.97;3812462;76;396317;-74
2021/03/11 02:06:34;;;;;;;10.97;3.40;;;;;;;5.77;78.81;98480.47;3811515;76;396366;-74
2021/03/11 02:12:14;;;;;;;3.33;2.70;;;;;;;5.90;78.29;98463.17;3811344;76;396083;-74
2021/03/11 02:17:42;;;;;;;5.40;4.20;;;;;;;5.86;78.20;98447.35;3812219;76;396044;-74
2021/03/11 02:23:26;;;;;;;3.40;1.67;;;;;;;6.00;77.98;98428.33;3808364;76;396090;-75
2021/03/11 02:29:00;;;;;;;0.93;0.70;;;;;;;6.00;77.27;98413.31;3813838;76;385709;-74
2021/03/11 02:34:24;;;;;;;1.73;1.63;;;;;;;6.09;76.14;98404.17;3812583;76;396052;-74
2021/03/11 02:39:48;;;;;;;1.93;1.77;;;;;;;6.32;73.82;98397.19;3812721;76;391855;-74
2021/03/11 02:45:12;;;;;;;3.27;3.07;;;;;;;6.55;72.17;98392.14;3812160;76;396107;-74
2021/03/11 02:50:35;;;;;;;4.00;2.07;;;;;;;6.59;72.53;98386.11;3813743;74;396104;-74
2021/03/11 02:55:58;;;;;;;2.30;2.10;;;;;;;6.64;72.76;98382.98;3813957;74;396092;-74
2021/03/11 03:01:21;;;;;;;2.33;2.13;;;;;;;6.58;73.99;98377.11;3812304;76;396159;-74
2021/03/11 03:06:43;;;;;;;4.00;1.80;;;;;;;6.50;75.58;98372.81;3814390;74;396374;-74
2021/03/11 03:12:05;;;;;;;3.73;2.80;;;;;;;6.45;77.14;98360.16;3812479;76;395262;-74
2021/03/11 03:17:27;;;;;;;4.37;2.93;;;;;;;6.39;79.19;98341.20;3812424;76;396350;-74
2021/03/11 03:22:50;;;;;;;2.20;1.40;;;;;;;6.39;79.52;98328.34;3813229;76;389936;-75
2021/03/11 03:28:11;;;;;;;4.80;3.70;;;;;;;6.24;83.12;98315.66;3812435;76;396080;-76
2021/03/11 03:33:32;;;;;;;1.60;1.50;;;;;;;6.06;86.86;98312.88;3812590;76;391967;-76
2021/03/11 03:38:55;;;;;;;5.40;2.50;;;;;;;5.93;92.46;98291.83;3814549;74;396056;-76
2021/03/11 03:44:19;;;;;;;1.27;1.17;;;;;;;5.79;99.48;98274.84;3812748;76;396040;-76
2021/03/11 03:49:42;;;;;;;9.43;3.63;;;;;;;5.71;98.89;98250.04;3816734;76;396040;-75
2021/03/11 03:55:03;;;;;;;4.77;2.50;;;;;;;5.78;96.04;98243.82;3817210;76;396116;-76
2021/03/11 04:00:26;;;;;;;1.93;1.77;;;;;;;5.91;94.00;98229.42;3818765;74;396084;-76
2021/03/11 04:05:47;;;;;;;5.10;3.20;;;;;;;6.01;94.72;98230.02;3817212;76;396162;-76
2021/03/11 04:11:09;;;;;;;11.07;4.30;;;;;;;6.06;93.93;98224.75;3817408;76;396111;-76
2021/03/11 04:16:32;;;;;;;2.30;1.20;;;;;;;5.97;98.66;98230.61;3817255;76;395006;-76
2021/03/11 04:21:53;;;;;;;4.60;1.77;;;;;;;5.96;98.39;98232.34;3817302;76;394043;-76
2021/03/11 04:27:14;;;;;;;1.87;1.77;;;;;;;5.94;99.10;98208.75;3817531;76;389877;-76
2021/03/11 04:32:37;;;;;;;4.80;1.73;;;;;;;6.00;97.07;98201.75;3817927;76;395460;-76
2021/03/11 04:37:59;;;;;;;5.77;2.73;;;;;;;6.07;94.09;98186.73;3817738;76;396035;-76
2021/03/11 04:43:21;;;;;;;4.43;1.80;;;;;;;6.09;93.20;98195.31;3817452;76;394991;-75
2021/03/11 04:48:43;;;;;;;2.53;2.43;;;;;;;6.04;94.46;98200.58;3816624;74;396153;-75
2021/03/11 04:54:04;;;;;;;8.73;3.13;;;;;;;6.03;95.66;98194.92;3813407;76;396113;-76
2021/03/11 04:59:26;;;;;;;3.60;3.30;;;;;;;5.94;98.05;98186.34;3792697;76;394252;-75
2021/03/11 05:04:48;;;;;;;4.90;2.97;;;;;;;5.81;99.45;98183.82;3812936;76;396122;-75
2021/03/11 05:10:09;;;;;;;4.03;3.53;;;;;;;5.88;98.00;98175.62;3811672;76;396108;-75
2021/03/11 05:15:30;;;;;;;3.60;2.30;;;;;;;6.15;93.20;98174.63;3812742;76;396319;-75
2021/03/11 05:20:53;;;;;;;2.53;1.70;;;;;;;6.07;93.06;98166.25;3811529;76;396138;-75
2021/03/11 05:26:14;;;;;;;2.47;2.30;;;;;;;6.11;92.78;98159.62;3812501;76;396301;-75
2021/03/11 05:31:35;;;;;;;3.10;2.10;;;;;;;6.15;91.85;98159.02;3812593;76;396081;-75
2021/03/11 05:36:56;;;;;;;2.20;1.80;;;;;;;6.20;91.43;98155.91;3812498;76;392111;-75
2021/03/11 05:42:20;;;;;;;2.20;2.00;;;;;;;6.31;89.92;98142.98;3812454;76;396341;-75
2021/03/11 05:47:44;;;;;;;1.90;1.80;;;;;;;6.30;89.98;98141.43;3812791;76;392907;-74
2021/03/11 05:53:06;;;;;;;4.17;1.70;;;;;;;6.48;89.56;98129.88;3816453;76;396377;-75
2021/03/11 05:58:30;;;;;;;1.70;1.50;;;;;;;6.54;90.42;98122.86;3817442;76;395015;-75
2021/03/11 06:03:53;;;;;;;3.00;1.40;;;;;;;6.71;89.49;98114.58;3817106;77;396289;-75
2021/03/11 06:09:16;;;;;;;8.03;1.80;;;;;;;6.81;89.33;98100.67;3817507;76;398147;-75
2021/03/11 06:14:41;;;;;;;5.40;1.70;;;;;;;6.86;89.93;98079.77;3817847;76;387829;-75
2021/03/11 06:20:03;;;;;;;3.00;1.83;;;;;;;6.91;90.00;98078.73;3817257;76;396104;-75
2021/03/11 06:25:24;;;;;;;3.97;2.50;;;;;;;6.99;91.28;98063.08;3817295;76;396078;-75
2021/03/11 06:30:46;;;;;;;6.77;4.13;;;;;;;6.99;92.37;98057.61;3817359;77;397313;-75
2021/03/11 06:36:14;;;;;;;1.97;1.83;;;;;;;7.12;91.98;98050.68;3817431;77;393985;-75
2021/03/11 06:41:45;;;;;;;2.93;2.20;;;;;;;7.32;90.60;98051.72;3801584;76;397263;-75
2021/03/11 06:47:09;;;;;;;2.20;0.80;;;;;;;7.49;89.16;98063.12;3818066;76;390789;-75
2021/03/11 06:52:30;;;;;;;4.40;3.33;;;;;;;7.61;88.29;98065.34;3817222;75;397012;-75
2021/03/11 06:57:51;;;;;;;3.77;2.67;;;;;;;7.65;88.63;98057.89;3817063;77;396132;-74
2021/03/11 07:03:13;;;;;;;2.03;1.53;;;;;;;7.61;88.84;98050.90;3817453;76;394236;-74
2021/03/11 07:08:34;;;;;;;3.90;1.60;;;;;;;7.78;87.37;98047.99;3817333;76;396108;-76
2021/03/11 07:14:00;;;;;;;2.27;1.93;;;;;;;7.93;86.55;98041.19;3817774;76;388709;-75
2021/03/11 07:19:22;;;;;;;3.30;3.00;;;;;;;8.13;84.00;98046.27;3816376;76;397081;-75
2021/03/11 07:24:43;;;;;;;0.80;0.50;;;;;;;8.28;83.54;98042.98;3820185;74;383860;-76
2021/03/11 07:30:08;;;;;;;1.87;1.60;;;;;;;8.37;83.61;98047.38;3817514;76;394234;-75
2021/03/11 07:35:32;;;;;;;1.50;0.90;;;;;;;8.39;84.77;98052.47;3817461;76;394924;-76
2021/03/11 07:40:56;;;;;;;4.70;2.00;;;;;;;8.42;85.58;98035.98;3818681;74;397032;-76
2021/03/11 07:46:18;;;;;;;2.50;1.10;;;;;;;8.39;87.30;98031.31;3817707;76;393977;-75
2021/03/11 07:51:40;;;;;;;3.83;2.00;;;;;;;8.46;87.79;98029.09;3813875;76;397040;-76
2021/03/11 07:57:02;;;;;;;6.33;2.83;;;;;;;8.45;89.01;98009.72;3812838;76;391067;-75
2021/03/11 08:02:24;;;;;;;4.70;1.90;;;;;;;8.46;87.48;98005.19;3812523;76;394919;-75
2021/03/11 08:07:45;;;;;;;2.23;1.27;;;;;;;8.54;86.26;98010.76;3812206;77;396166;-75
2021/03/11 08:13:27;;;;;;;1.67;1.57;;;;;;;8.63;85.18;98008.91;3813183;76;389123;-76
2021/03/11 08:18:50;;;;;;;3.17;1.43;;;;;;;8.74;84.03;98011.68;3812483;76;394964;-76
2021/03/11 08:24:39;;;;;;;2.53;1.40;;;;;;;8.75;84.72;98009.13;3812089;76;395504;-75
2021/03/11 08:30:00;;;;;;;1.27;1.17;;;;;;;8.77;85.30;98002.03;3812392;76;396138;-75
2021/03/11 08:35:42;;;;;;;1.60;1.50;;;;;;;8.92;84.36;97982.80;3813334;76;383571;-75
2021/03/11 08:41:10;;;;;;;1.43;1.10;;;;;;;8.92;85.61;97966.35;3812857;76;394934;-75
2021/03/11 08:46:51;;;;;;;3.67;1.10;;;;;;;8.97;86.89;97963.12;3796249;76;384529;-75
2021/03/11 08:52:44;;;;;;;2.13;0.80;;;;;;;9.02;87.84;97972.28;3816146;75;395920;-75
2021/03/11 08:58:25;;;;;;;1.87;1.67;;;;;;;9.04;89.48;97976.76;3771156;76;397278;-75
2021/03/11 09:03:47;;;;;;;1.73;1.33;;;;;;;9.07;90.07;97965.55;3814808;76;394915;-76
2021/03/11 09:09:09;;;;;;;6.30;1.30;;;;;;;9.14;90.96;97959.33;3828642;76;386943;-76
2021/03/11 09:14:31;;;;;;;1.50;0.93;;;;;;;9.27;90.61;97949.34;3816984;76;391829;-76
2021/03/11 09:20:00;;;;;;;4.67;2.87;;;;;;;9.43;90.22;97926.12;3817327;76;397046;-76
2021/03/11 09:25:22;;;;;;;1.37;0.90;;;;;;;9.73;91.48;97928.69;3818324;76;387783;-76
2021/03/11 09:30:43;;;;;;;1.70;1.10;;;;;;;9.76;94.12;97931.37;3817840;76;394029;-75
2021/03/11 09:36:15;;;;;;;1.27;1.07;;;;;;;9.80;95.32;97927.97;3820050;74;388663;-76
2021/03/11 09:41:36;;;;;;;1.40;1.17;;;;;;;9.91;96.23;97934.63;3817753;76;393219;-75
2021/03/11 09:46:57;;;;;;;1.10;0.90;;;;;;;10.05;95.32;97916.52;3817316;76;388711;-75
2021/03/11 09:52:18;;;;;;;2.37;1.33;;;;;;;10.22;93.73;97896.89;3800701;76;397055;-76
2021/03/11 09:57:40;;;;;;;1.37;1.00;;;;;;;10.31;93.17;97899.84;3817666;76;393222;-76
2021/03/11 10:03:01;;;;;;;0.90;0.50;;;;;;;10.32;93.91;97907.51;3817789;76;385781;-76
2021/03/11 10:08:36;;;;;;;1.50;1.20;;;;;;;10.38;93.98;97900.48;3817583;76;394989;-76
2021/03/11 10:14:02;;;;;;;1.37;1.27;;;;;;;10.40;95.30;97902.80;3801216;76;394914;-77
2021/03/11 10:19:22;;;;;;;1.40;1.17;;;;;;;10.28;100.00;97897.17;3817914;76;393154;-77
2021/03/11 10:24:46;;;;;;;1.40;1.30;;;;;;;10.06;100.00;97889.22;3817727;76;397005;-77
2021/03/11 10:30:29;;;;;;;1.13;0.80;;;;;;;9.86;100.00;97896.64;3818381;76;384524;-77
2021/03/11 10:35:49;;;;;;;1.20;1.10;;;;;;;9.78;100.00;97880.13;3819767;74;393274;-77
2021/03/11 10:41:13;;;;;;;1.73;1.37;;;;;;;9.77;100.00;97871.75;3816426;76;397080;-77
2021/03/11 10:46:34;;;;;;;1.53;0.70;;;;;;;9.80;100.00;97857.14;3818263;76;390797;-77
2021/03/11 10:52:01;;;;;;;0.90;0.80;;;;;;;9.71;100.00;97858.31;3816248;76;389860;-77
2021/03/11 10:57:24;;;;;;;0.90;0.50;;;;;;;9.82;100.00;97842.41;3813951;76;384546;-76
2021/03/11 11:02:45;;;;;;;0.90;0.70;;;;;;;9.92;100.00;97816.69;3813357;76;385793;-77
2021/03/11 11:08:09;;;;;;;0.90;0.60;;;;;;;10.16;100.00;97815.41;3813976;76;384817;-76
2021/03/11 11:13:31;;;;;;;2.70;1.10;;;;;;;10.20;100.00;97818.25;3813287;76;385607;-76
2021/03/11 11:18:52;;;;;;;0.87;0.53;;;;;;;10.27;100.00;97821.41;3813869;76;385535;-76
2021/03/11 11:24:14;;;;;;;2.50;1.00;;;;;;;10.47;100.00;97816.82;3813347;76;390787;-76
2021/03/11 11:29:36;;;;;;;1.57;0.70;;;;;;;10.62;100.00;97813.14;3812715;76;390800;-75
2021/03/11 11:34:59;;;;;;;0.97;0.57;;;;;;;10.78;100.00;97820.01;3813888;76;384594;-75
2021/03/11 11:40:21;;;;;;;1.00;0.70;;;;;;;10.77;100.00;97813.72;3811832;76;388717;-76
2021/03/11 11:45:42;;;;;;;1.20;0.93;;;;;;;10.74;100.00;97791.80;3825701;75;389685;-76
2021/03/11 11:51:04;;;;;;;1.00;0.80;;;;;;;10.69;100.00;97784.84;3812737;75;384590;-76
2021/03/11 11:56:25;;;;;;;1.33;0.67;;;;;;;10.72;100.00;97799.70;3778662;76;387628;-75
2021/03/11 12:01:47;;;;;;;0.90;0.60;;;;;;;10.79;100.00;97767.31;3800948;75;385530;-75
2021/03/11 12:07:08;;;;;;;0.80;0.50;;;;;;;10.85;100.00;97779.33;3804526;76;384607;-75
2021/03/11 12:12:29;;;;;;;1.00;0.60;;;;;;;10.87;100.00;97770.63;3803168;75;389877;-76
2021/03/11 12:17:50;;;;;;;1.10;0.83;;;;;;;10.92;100.00;97759.88;3778759;76;383816;-75
2021/03/11 12:23:12;;;;;;;1.00;0.80;;;;;;;10.89;100.00;97752.52;3777527;76;384553;-75
2021/03/11 12:28:33;;;;;;;1.10;0.80;;;;;;;10.90;100.00;97751.89;3778546;76;385615;-75
2021/03/11 12:33:54;;;;;;;0.90;0.77;;;;;;;10.89;100.00;97742.88;3777780;76;384553;-75
2021/03/11 12:39:15;;;;;;;1.83;0.80;;;;;;;10.95;100.00;97727.38;3784734;76;387610;-75
2021/03/11 12:44:36;;;;;;;0.90;0.60;;;;;;;11.04;100.00;97728.13;3837166;75;384516;-75
2021/03/11 12:49:57;;;;;;;0.80;0.50;;;;;;;11.09;100.00;97720.73;3789871;76;384505;-75
2021/03/11 12:55:18;;;;;;;1.53;1.00;;;;;;;11.15;100.00;97697.72;3809359;76;394028;-75
2021/03/11 13:00:40;;;;;;;0.80;0.50;;;;;;;11.17;100.00;97700.23;3819023;76;384756;-75
2021/03/11 13:06:01;;;;;;;0.80;0.50;;;;;;;11.23;100.00;97693.56;3818352;76;383618;-75
2021/03/11 13:11:24;;;;;;;1.00;0.60;;;;;;;11.30;100.00;97696.90;3818518;76;384553;-75
2021/03/11 13:16:45;;;;;;;0.90;0.60;;;;;;;11.37;100.00;97689.05;3819405;76;384790;-75
2021/03/11 13:22:06;;;;;;;1.07;0.97;;;;;;;11.40;100.00;97689.53;3818714;76;384645;-76
2021/03/11 13:27:27;;;;;;;0.90;0.77;;;;;;;11.40;100.00;97680.68;3819034;76;384498;-76
2021/03/11 13:32:50;;;;;;;1.17;0.97;;;;;;;11.32;100.00;97662.03;3817941;76;388662;-76
2021/03/11 13:38:12;;;;;;;1.13;1.03;;;;;;;11.24;100.00;97667.58;3817672;76;391902;-76
2021/03/11 13:43:33;;;;;;;1.27;1.03;;;;;;;11.27;100.00;97679.86;3817900;76;391870;-76
2021/03/11 13:48:54;;;;;;;0.80;0.50;;;;;;;11.50;100.00;97630.63;3818517;77;383587;-74
2021/03/11 13:54:16;;;;;;;1.63;0.97;;;;;;;11.81;100.00;97641.28;3815712;76;385694;-74
2021/03/11 13:59:37;;;;;;;1.10;0.87;;;;;;;12.19;100.00;97629.79;3813249;76;388717;-75
2021/03/11 14:04:58;;;;;;;0.90;0.60;;;;;;;12.37;100.00;97628.56;3815396;74;384593;-75
2021/03/11 14:10:19;;;;;;;0.87;0.50;;;;;;;12.33;100.00;97634.82;3813775;76;384558;-74
2021/03/11 14:15:40;;;;;;;1.40;0.60;;;;;;;12.38;100.00;97621.83;3813585;76;391115;-75
2021/03/11 14:21:02;;;;;;;0.90;0.50;;;;;;;12.62;100.00;97610.55;3813816;76;384561;-75
2021/03/11 14:26:23;;;;;;;1.67;1.10;;;;;;;12.82;100.00;97611.78;3812891;77;388701;-75
2021/03/11 14:31:45;;;;;;;0.90;0.50;;;;;;;12.81;100.00;97600.58;3813852;76;384584;-75
2021/03/11 14:37:07;;;;;;;5.23;0.70;;;;;;;12.92;92.94;97597.48;3813197;76;391017;-76
2021/03/11 14:42:28;;;;;;;1.40;0.60;;;;;;;13.28;83.98;97597.09;3813127;76;389858;-76
2021/03/11 14:47:50;;;;;;;1.00;0.53;;;;;;;13.76;67.99;97595.75;3813422;76;388688;-77
2021/03/11 14:53:11;;;;;;;10.97;1.43;;;;;;;13.93;67.28;97564.48;3813454;76;384521;-76
2021/03/11 14:58:33;;;;;;;1.40;0.60;;;;;;;13.60;69.81;97547.65;3812952;76;390755;-76
2021/03/11 15:03:54;;;;;;;5.70;0.73;;;;;;;13.32;71.30;97545.23;3814942;74;388914;-75
2021/03/11 15:09:15;;;;;;;1.00;0.43;;;;;;;13.67;70.95;97545.22;3813902;76;384505;-76
2021/03/11 15:14:36;;;;;;;0.87;0.50;;;;;;;13.66;69.41;97549.21;3813770;76;384518;-76
2021/03/11 15:19:57;;;;;;;1.50;1.00;;;;;;;13.52;68.24;97582.15;3812815;76;392840;-75
2021/03/11 15:25:19;;;;;;;2.20;1.00;;;;;;;13.76;68.68;97576.41;3813302;76;385001;-76
2021/03/11 15:30:40;;;;;;;3.27;1.20;;;;;;;13.36;69.59;97579.03;3813235;76;384595;-76
2021/03/11 15:36:01;;;;;;;2.60;1.03;;;;;;;13.52;71.22;97570.50;3812929;76;395020;-76
2021/03/11 15:41:22;;;;;;;1.33;0.47;;;;;;;13.37;70.35;97530.07;3814591;74;391062;-75
2021/03/11 15:46:43;;;;;;;2.70;1.00;;;;;;;13.65;70.89;97529.70;3794924;76;388997;-75
2021/03/11 15:52:05;;;;;;;1.10;0.87;;;;;;;12.96;73.34;97544.29;3813078;76;392882;-76
2021/03/11 15:57:26;;;;;;;2.60;1.33;;;;;;;12.67;74.56;97549.30;3781869;76;388996;-76
2021/03/11 16:02:47;;;;;;;1.43;0.60;;;;;;;12.50;74.49;97563.71;3813448;76;390837;-76
2021/03/11 16:08:13;;;;;;;0.90;0.50;;;;;;;12.45;76.18;97550.50;3805887;76;384554;-76
2021/03/11 16:13:34;;;;;;;0.90;0.50;;;;;;;12.33;76.74;97539.69;3780710;76;383545;-76
2021/03/11 16:18:55;;;;;;;2.03;0.97;;;;;;;12.28;76.17;97537.48;3778652;76;390791;-75
2021/03/11 16:24:17;;;;;;;2.50;1.00;;;;;;;12.34;74.97;97539.86;3778265;77;391070;-76
2021/03/11 16:29:38;;;;;;;0.90;0.50;;;;;;;12.20;70.84;97549.22;3777925;78;384622;-75
2021/03/11 16:35:00;;;;;;;0.90;0.50;;;;;;;11.89;72.28;97559.94;3778840;76;388919;-75
2021/03/11 16:40:21;;;;;;;0.90;0.60;;;;;;;11.43;74.57;97573.02;3778812;77;387770;-77
2021/03/11 16:45:42;;;;;;;0.90;0.63;;;;;;;11.02;76.27;97551.09;3777731;77;385619;-75
2021/03/11 16:51:04;;;;;;;1.00;0.60;;;;;;;10.79;77.66;97580.27;3806237;76;384533;-75
2021/03/11 16:56:25;;;;;;;0.80;0.40;;;;;;;10.75;77.66;97599.45;3815991;75;383801;-75
2021/03/11 17:01:46;;;;;;;0.93;0.50;;;;;;;10.70;78.68;97600.76;3815459;76;388677;-75
2021/03/11 17:07:08;;;;;;;5.70;1.43;;;;;;;10.61;80.86;97600.61;3813982;77;384513;-76
2021/03/11 17:12:29;;;;;;;1.00;0.90;;;;;;;10.49;81.60;97591.73;3814474;75;384809;-76
2021/03/11 17:17:50;;;;;;;1.00;0.63;;;;;;;10.42;82.58;97601.52;3814388;76;386645;-76
2021/03/11 17:23:11;;;;;;;0.80;0.40;;;;;;;10.23;84.88;97605.02;3814578;75;384887;-76
2021/03/11 17:28:33;;;;;;;0.80;0.40;;;;;;;10.09;86.33;97625.38;3814682;75;384544;-75
2021/03/11 17:33:54;;;;;;;0.80;0.40;;;;;;;10.01;87.27;97622.64;3815741;76;384557;-76
2021/03/11 17:39:18;;;;;;;0.97;0.60;;;;;;;10.01;87.17;97618.52;3814658;75;384518;-76
2021/03/11 17:44:38;;;;;;;3.03;2.23;;;;;;;9.96;87.36;97614.11;3814630;76;397249;-76
2021/03/11 17:50:00;;;;;;;3.73;1.17;;;;;;;9.82;88.08;97608.97;3813583;76;397002;-76
2021/03/11 17:55:21;;;;;;;2.33;0.70;;;;;;;9.80;87.21;97622.34;3813707;77;389916;-77
2021/03/11 18:00:42;;;;;;;1.17;0.57;;;;;;;9.82;85.84;97624.83;3815594;76;388061;-76
2021/03/11 18:06:03;;;;;;;1.20;0.90;;;;;;;9.89;84.64;97632.13;3814859;76;391932;-76
2021/03/11 18:11:24;;;;;;;0.80;0.50;;;;;;;10.00;83.20;97635.44;3815775;76;384510;-76
2021/03/11 18:16:45;;;;;;;1.87;1.57;;;;;;;10.04;83.33;97664.37;3814966;76;388940;-77
2021/03/11 18:22:07;;;;;;;2.07;1.07;;;;;;;10.01;84.66;97692.69;3815359;76;383555;-76
2021/03/11 18:27:28;;;;;;;2.23;0.90;;;;;;;9.96;86.11;97696.52;3815496;76;384782;-76
2021/03/11 18:32:49;;;;;;;8.77;1.53;;;;;;;9.83;87.53;97699.16;3815080;75;393906;-76
2021/03/11 18:38:10;;;;;;;1.53;0.90;;;;;;;9.93;88.10;97711.88;3815161;75;395214;-77
2021/03/11 18:43:31;;;;;;;1.13;1.03;;;;;;;9.87;89.36;97697.70;3813738;75;392873;-76
2021/03/11 18:48:54;;;;;;;0.97;0.83;;;;;;;9.91;90.17;97694.28;3815528;76;384563;-77
2021/03/11 18:54:15;;;;;;;1.57;1.47;;;;;;;9.92;91.23;97687.59;3815106;75;391877;-76
2021/03/11 18:59:37;;;;;;;1.27;1.17;;;;;;;9.92;91.58;97686.22;3805863;76;390777;-76
2021/03/11 19:04:58;;;;;;;1.40;0.60;;;;;;;9.95;92.62;97690.84;3818135;77;390748;-76
2021/03/11 19:10:21;;;;;;;1.00;0.70;;;;;;;10.03;92.42;97701.86;3819910;74;389921;-76
2021/03/11 19:15:42;;;;;;;1.00;0.80;;;;;;;10.00;94.78;97734.33;3817328;76;391924;-78
2021/03/11 19:21:05;;;;;;;0.90;0.50;;;;;;;8.10;100.00;97857.52;3818648;76;384552;-77
2021/03/11 19:26:26;;;;;;;0.80;0.40;;;;;;;6.61;100.00;97814.08;3819447;76;384572;-78
2021/03/11 19:31:47;;;;;;;0.90;0.60;;;;;;;6.21;100.00;97819.46;3818472;77;387743;-78
2021/03/11 19:37:08;;;;;;;0.80;0.40;;;;;;;6.28;100.00;97863.89;3818673;76;383576;-78
2021/03/11 19:42:29;;;;;;;0.80;0.40;;;;;;;6.36;100.00;97894.83;3820059;74;383800;-79
2021/03/11 19:47:50;;;;;;;0.80;0.40;;;;;;;6.46;100.00;97854.98;3818761;76;384537;-79
2021/03/11 19:53:12;;;;;;;0.90;0.70;;;;;;;6.64;100.00;97841.95;3819163;76;383885;-79
2021/03/11 19:58:33;;;;;;;0.80;0.37;;;;;;;6.77;100.00;97843.02;3794067;75;384561;-80
2021/03/11 20:03:54;;;;;;;1.23;0.60;;;;;;;6.85;100.00;97863.64;3785500;76;383832;-80
2021/03/11 20:09:16;;;;;;;0.80;0.40;;;;;;;6.91;100.00;97894.22;3806895;75;384770;-80
2021/03/11 20:14:37;;;;;;;0.80;0.40;;;;;;;6.78;100.00;97909.56;3814797;75;383856;-80
2021/03/11 20:19:58;;;;;;;1.20;0.63;;;;;;;6.73;100.00;97901.81;3804142;77;390116;-80
2021/03/11 20:25:20;;;;;;;1.83;1.17;;;;;;;6.70;100.00;97907.30;3813420;76;384543;-80
2021/03/11 20:30:41;;;;;;;0.80;0.40;;;;;;;6.53;100.00;97921.86;3815207;76;383575;-80
2021/03/11 20:36:02;;;;;;;0.80;0.40;;;;;;;6.39;100.00;97913.73;3807429;75;384521;-80
2021/03/11 20:41:23;;;;;;;0.80;0.40;;;;;;;6.40;100.00;97867.50;3799981;76;383587;-79
2021/03/11 20:46:44;;;;;;;0.80;0.40;;;;;;;6.35;100.00;97850.19;3807247;75;383785;-79
2021/03/11 20:52:07;;;;;;;0.93;0.67;;;;;;;6.34;100.00;97875.94;3794675;75;383804;-79
2021/03/11 20:57:28;;;;;;;0.80;0.40;;;;;;;6.33;100.00;97873.02;3803998;76;383867;-79
2021/03/11 21:02:49;;;;;;;0.90;0.60;;;;;;;6.27;100.00;97872.46;3804683;75;383894;-78
2021/03/11 21:08:10;;;;;;;2.73;2.30;;;;;;;6.44;100.00;97861.44;3804334;77;391936;-78
2021/03/11 21:13:32;;;;;;;0.80;0.40;;;;;;;6.57;100.00;97870.12;3803250;75;383836;-78
2021/03/11 21:18:53;;;;;;;0.80;0.40;;;;;;;6.65;100.00;97885.85;3778342;76;383817;-78
2021/03/11 21:24:15;;;;;;;0.80;0.40;;;;;;;6.69;100.00;97899.67;3777694;76;384859;-77
2021/03/11 21:29:36;;;;;;;6.40;1.10;;;;;;;6.76;100.00;97916.02;3804817;77;390754;-78
2021/03/11 21:34:57;;;;;;;0.90;0.67;;;;;;;6.87;100.00;97922.19;3805726;77;383793;-78
2021/03/11 21:40:24;;;;;;;0.83;0.60;;;;;;;6.89;100.00;97946.38;3779839;76;383587;-78
2021/03/11 21:45:46;;;;;;;0.90;0.50;;;;;;;6.83;100.00;97942.53;3777838;77;384578;-77
2021/03/11 21:51:11;;;;;;;0.80;0.50;;;;;;;6.82;100.00;97953.27;3778095;76;384592;-77
2021/03/11 21:56:32;;;;;;;3.10;1.00;;;;;;;6.82;100.00;97952.70;3778905;76;383939;-78
2021/03/11 22:01:54;;;;;;;0.90;0.60;;;;;;;6.78;100.00;97968.93;3809230;77;383567;-77
2021/03/11 22:07:17;;;;;;;1.57;1.37;;;;;;;6.84;100.00;97970.05;3812650;76;396138;-78
2021/03/11 22:12:39;;;;;;;0.80;0.40;;;;;;;6.91;100.00;97970.76;3813995;76;384565;-77
2021/03/11 22:18:00;;;;;;;0.90;0.57;;;;;;;7.01;100.00;97975.38;3813954;76;385616;-78
2021/03/11 22:23:21;;;;;;;1.17;0.70;;;;;;;7.08;100.00;97996.42;3813479;76;392971;-77
2021/03/11 22:28:42;;;;;;;1.03;0.93;;;;;;;7.07;100.00;98005.20;3813787;76;383836;-77
2021/03/11 22:34:05;;;;;;;1.37;0.90;;;;;;;7.08;100.00;98025.14;3813195;76;392956;-78
2021/03/11 22:39:26;;;;;;;1.63;1.00;;;;;;;7.08;100.00;98037.45;3813193;76;391979;-78
2021/03/11 22:44:47;;;;;;;0.93;0.80;;;;;;;7.13;100.00;98029.00;3813879;76;383580;-78
2021/03/11 22:50:10;;;;;;;2.90;2.03;;;;;;;7.13;100.00;98011.82;3812555;76;396047;-77
2021/03/11 22:55:32;;;;;;;1.10;0.77;;;;;;;7.22;100.00;98021.12;3813741;76;383583;-77
2021/03/11 23:00:53;;;;;;;1.00;0.70;;;;;;;7.32;100.00;98035.88;3817495;76;383544;-77
2021/03/11 23:06:14;;;;;;;2.60;1.20;;;;;;;7.27;100.00;98025.38;3817481;76;396051;-77
2021/03/11 23:11:35;;;;;;;0.80;0.50;;;;;;;7.25;100.00;98028.53;3818515;76;383544;-77
2021/03/11 23:16:56;;;;;;;0.90;0.60;;;;;;;7.16;100.00;98026.04;3817668;76;384604;-77
2021/03/11 23:22:18;;;;;;;0.90;0.50;;;;;;;7.14;100.00;98022.95;3820328;74;383604;-77
2021/03/11 23:27:41;;;;;;;1.10;1.00;;;;;;;7.07;100.00;98024.34;3819538;74;387785;-77
2021/03/11 23:33:02;;;;;;;3.17;1.00;;;;;;;7.08;100.00;98025.14;3817863;76;388780;-77
2021/03/11 23:38:23;;;;;;;0.80;0.50;;;;;;;7.13;100.00;98010.45;3818514;76;383812;-77
2021/03/11 23:43:44;;;;;;;2.40;1.10;;;;;;;7.18;100.00;97999.08;3815258;76;394251;-77
2021/03/11 23:49:07;;;;;;;1.23;1.13;;;;;;;7.22;100.00;97994.37;3818342;76;383576;-77
2021/03/11 23:54:28;;;;;;;1.97;1.87;;;;;;;7.20;100.00;97992.62;3817523;76;387833;-78
2021/03/11 23:59:51;;;;;;;1.43;0.73;;;;;;;7.17;100.00;98002.98;3815654;76;393992;-78
